• Join FlightAware (Why Join?)
  • Login
  • US Flag 
01:15PM EST


 

Airport Tracker/Info


-or-


 

Live Flight TrackerFlight Track Log ✈ EJA372P ✈ 27-Sep-2013 ✈ TXKF / BDA - KPBI

Flight Track Log - Related Links

Times and Time Zones

All times are in EDT time to prevent confusion due to time zone crossing. See the EJA372P flight status page for this flight to view local times or setup timezone preferences in your user account.

Time Position Orientation Groundspeed Altitude Reporting Facility
EDT Latitude Longitude Course Direction KTS MPH feet Rate Location/Type
07:44AM 32.3642 -64.6706 109° East 428 493 700  Level New York Center
07:45AM 32.3464 -64.6106 109° East 282 325 4,500 4,200 Climbing New York Center
07:46AM 32.2822 -64.6175 185° South 188 216 9,100 3,780 Climbing New York Center
07:47AM 32.2786 -64.7111 267° West 145 167 12,100 2,880 Climbing New York Center
07:48AM 32.2856 -64.8064 275° West 263 303 15,000 2,820 Climbing New York Center
07:49AM 32.2875 -64.9289 271° West 326 375 17,800 2,640 Climbing New York Center
07:50AM 32.2925 -65.0314 273° West 353 406 20,300 2,400 Climbing New York Center
07:51AM 32.2964 -65.1586 272° West 353 406 22,600 2,040 Climbing New York Center
07:52AM 32.2997 -65.2761 272° West 369 425 24,500 1,860 Climbing New York Center
07:53AM 32.3031 -65.3914 272° West 377 434 26,300 1,860 Climbing New York Center
07:54AM 32.3069 -65.5283 272° West 389 448 28,300 1,680 Climbing New York Center
07:55AM 32.3083 -65.6558 271° West 389 448 29,700 1,380 Climbing New York Center
07:56AM 32.3114 -65.7736 272° West 394 453 31,100 1,500 Climbing New York Center
07:57AM 32.3150 -65.9131 272° West 394 453 32,800 1,560 Climbing New York Center
07:58AM 32.3158 -66.0383 270° West 394 453 34,200 1,320 Climbing New York Center
07:59AM 32.3206 -66.1533 273° West 389 448 35,500 1,140 Climbing New York Center
08:00AM 32.3236 -66.2881 272° West 382 440 36,600 960 Climbing New York Center
08:01AM 32.3256 -66.3983 271° West 382 440 37,500 960 Climbing New York Center
08:02AM 32.3306 -66.5356 273° West 382 440 38,600 960 Climbing New York Center
08:03AM 32.3306 -66.6583 270° West 382 440 39,500 840 Climbing New York Center
08:04AM 32.3383 -66.7658 275° West 376 433 40,400 840 Climbing New York Center
08:05AM 32.3367 -66.9011 269° West 376 433 41,300 780 Climbing New York Center
08:06AM 32.3383 -67.0211 271° West 376 433 42,000 600 Climbing New York Center
08:07AM 32.3353 -67.1269 268° West 370 426 42,500 480 Climbing New York Center
08:08AM 32.3392 -67.2567 272° West 365 420 43,000 240 Climbing New York Center
08:09AM 32.3467 -67.3669 275° West 365 420 43,000  Level New York Center
08:10AM 32.3483 -67.5042 271° West 375 432 43,000  Level New York Center
08:11AM 32.3456 -67.6294 269° West 382 440 43,000  Level New York Center
08:12AM 32.3483 -67.7472 272° West 394 453 43,000  Level New York Center
08:13AM 32.3497 -67.8872 271° West 394 453 43,000  Level New York Center
08:14AM 32.3508 -68.0147 271° West 394 453 43,000  Level New York Center
08:15AM 32.3489 -68.1253 269° West 388 447 43,000  Level New York Center
08:16AM 32.3417 -68.2628 266° West 383 441 43,000  Level New York Center
08:17AM 32.3500 -68.2333 245° Southwest 391 450 43,000  Level New York Oceanic (ODAPS)
08:24AM 31.9373 -69.2805 245° Southwest 391 450 43,000  Level FlightAware Transoceanic
08:25AM 31.8909 -69.3963 245° Southwest 391 450 43,000  Level FlightAware Transoceanic
08:26AM 31.8444 -69.5119 245° Southwest 391 450 43,000  Level FlightAware Transoceanic
08:27AM 31.7978 -69.6274 245° Southwest 391 450 43,000  Level FlightAware Transoceanic
08:28AM 31.7511 -69.7429 245° Southwest 391 450 43,000  Level FlightAware Transoceanic
08:29AM 31.7043 -69.8582 244° Southwest 391 450 43,000  Level FlightAware Transoceanic
08:30AM 31.6574 -69.9733 244° Southwest 391 450 43,000  Level FlightAware Transoceanic
08:31AM 31.6103 -70.0884 244° Southwest 391 450 43,000  Level FlightAware Transoceanic
08:32AM 31.5632 -70.2034 244° Southwest 391 450 43,000  Level FlightAware Transoceanic
08:33AM 31.5160 -70.3182 244° Southwest 391 450 43,000  Level FlightAware Transoceanic
08:34AM 31.4687 -70.4329 244° Southwest 391 450 43,000  Level FlightAware Transoceanic
08:35AM 31.4213 -70.5475 244° Southwest 391 450 43,000  Level FlightAware Transoceanic
08:36AM 31.3737 -70.6620 244° Southwest 391 450 43,000  Level FlightAware Transoceanic
08:37AM 31.3261 -70.7764 244° Southwest 391 450 43,000  Level FlightAware Transoceanic
08:38AM 31.2784 -70.8906 244° Southwest 391 450 43,000  Level FlightAware Transoceanic
08:39AM 31.2306 -71.0048 244° Southwest 391 450 43,000  Level FlightAware Transoceanic
08:40AM 31.1826 -71.1188 244° Southwest 391 450 43,000  Level FlightAware Transoceanic
08:41AM 31.1346 -71.2327 244° Southwest 391 450 43,000  Level FlightAware Transoceanic
08:42AM 31.0865 -71.3465 244° Southwest 391 450 43,000  Level FlightAware Transoceanic
08:43AM 31.0382 -71.4602 244° Southwest 391 450 43,000  Level FlightAware Transoceanic
08:44AM 30.9899 -71.5737 244° Southwest 391 450 43,000  Level FlightAware Transoceanic
08:45AM 30.9415 -71.6872 244° Southwest 391 450 43,000  Level FlightAware Transoceanic
08:46AM 30.8929 -71.8005 243° Southwest 391 450 43,000  Level FlightAware Transoceanic
08:47AM 30.8443 -71.9137 243° Southwest 391 450 43,000  Level FlightAware Transoceanic
08:48AM 30.7956 -72.0268 243° Southwest 391 450 43,000  Level FlightAware Transoceanic
08:49AM 30.7468 -72.1398 243° Southwest 391 450 43,000  Level FlightAware Transoceanic
08:50AM 30.6978 -72.2527 243° Southwest 391 450 43,000  Level FlightAware Transoceanic
08:51AM 30.6488 -72.3654 243° Southwest 391 450 43,000  Level FlightAware Transoceanic
08:52AM 30.5997 -72.4781 243° Southwest 391 450 43,000  Level FlightAware Transoceanic
08:53AM 30.5505 -72.5906 243° Southwest 391 450 43,000  Level FlightAware Transoceanic
08:54AM 30.5012 -72.7030 243° Southwest 391 450 43,000  Level FlightAware Transoceanic
08:55AM 30.4518 -72.8153 243° Southwest 391 450 43,000  Level FlightAware Transoceanic
08:56AM 30.4023 -72.9275 243° Southwest 391 450 43,000  Level FlightAware Transoceanic
08:57AM 30.3527 -73.0396 243° Southwest 391 450 43,000  Level FlightAware Transoceanic
08:58AM 30.3030 -73.1516 243° Southwest 391 450 43,000  Level FlightAware Transoceanic
08:59AM 30.2532 -73.2634 243° Southwest 391 450 43,000  Level FlightAware Transoceanic
09:00AM 30.2033 -73.3751 243° Southwest 391 450 43,000  Level FlightAware Transoceanic
09:01AM 30.1533 -73.4867 243° Southwest 391 450 43,000  Level FlightAware Transoceanic
09:02AM 30.1033 -73.5983 243° Southwest 391 450 43,000  Level FlightAware Transoceanic
09:03AM 30.0531 -73.7096 242° Southwest 391 450 43,000  Level FlightAware Transoceanic
09:04AM 30.0028 -73.8209 242° Southwest 391 450 43,000  Level FlightAware Transoceanic
09:05AM 29.9525 -73.9321 242° Southwest 391 450 43,000  Level FlightAware Transoceanic
09:06AM 29.9020 -74.0432 242° Southwest 391 450 43,000  Level FlightAware Transoceanic
09:07AM 29.8515 -74.1541 242° Southwest 391 450 43,000  Level FlightAware Transoceanic
09:08AM 29.8009 -74.2649 242° Southwest 391 450 43,000  Level FlightAware Transoceanic
09:09AM 29.7501 -74.3756 242° Southwest 391 450 43,000  Level FlightAware Transoceanic
09:10AM 29.6993 -74.4863 242° Southwest 391 450 43,000  Level FlightAware Transoceanic
09:11AM 29.6484 -74.5967 242° Southwest 391 450 43,000  Level FlightAware Transoceanic
09:12AM 29.5974 -74.7071 242° Southwest 391 450 43,000  Level FlightAware Transoceanic
09:13AM 29.5463 -74.8174 242° Southwest 391 450 43,000  Level FlightAware Transoceanic
09:14AM 29.4951 -74.9276 242° Southwest 391 450 43,000  Level FlightAware Transoceanic
09:15AM 29.4439 -75.0376 242° Southwest 391 450 43,000  Level FlightAware Transoceanic
09:16AM 29.3925 -75.1475 242° Southwest 391 450 43,000  Level FlightAware Transoceanic
09:17AM 29.3410 -75.2574 242° Southwest 391 450 43,000  Level FlightAware Transoceanic
09:18AM 29.2895 -75.3671 242° Southwest 391 450 43,000  Level FlightAware Transoceanic
09:19AM 29.2379 -75.4767 242° Southwest 391 450 43,000  Level FlightAware Transoceanic
09:20AM 29.1861 -75.5862 242° Southwest 391 450 43,000  Level FlightAware Transoceanic
09:21AM 29.1343 -75.6956 241° Southwest 391 450 43,000  Level FlightAware Transoceanic
09:22AM 29.0824 -75.8048 241° Southwest 391 450 43,000  Level FlightAware Transoceanic
09:23AM 29.0304 -75.9140 241° Southwest 391 450 43,000  Level FlightAware Transoceanic
09:29AM 28.7717 -76.4392 241° Southwest 441 507 43,000  Level Miami Center
09:30AM 28.7219 -76.5508 243° Southwest 423 487 43,000  Level Miami Center
09:31AM 28.6656 -76.6669 241° Southwest 417 480 43,000  Level Miami Center
09:32AM 28.6242 -76.7806 247° West 407 468 43,000  Level Miami Center
09:33AM 28.5719 -76.8964 243° Southwest 401 461 43,000  Level Miami Center
09:34AM 28.5281 -77.0144 247° West 401 461 43,000  Level Miami Center
09:35AM 28.4797 -77.1278 244° Southwest 406 467 43,000  Level Miami Center
09:36AM 28.4189 -77.2433 239° Southwest 407 468 43,000  Level Miami Center
09:37AM 28.3769 -77.3589 248° West 407 468 43,000  Level Miami Center
09:38AM 28.3325 -77.4742 246° West 402 463 43,000  Level Miami Center
09:39AM 28.2736 -77.5894 240° Southwest 407 468 43,000  Level Miami Center
09:40AM 28.2333 -77.7047 248° West 407 468 43,000  Level Miami Center
09:41AM 28.1806 -77.8197 243° Southwest 407 468 43,000  Level Miami Center
09:42AM 28.1317 -77.9372 245° Southwest 407 468 43,000  Level Miami Center
09:43AM 28.0783 -78.0567 243° Southwest 412 474 43,000 -840 Level Miami Center
09:44AM 28.0294 -78.1761 245° Southwest 418 481 41,400 -1,860 Descending Miami Center
09:45AM 27.9783 -78.2908 243° Southwest 418 481 39,300 -2,100 Descending Miami Center
09:46AM 27.9311 -78.4053 245° Southwest 418 481 37,200 -2,100 Descending Miami Center
09:47AM 27.8839 -78.5197 245° Southwest 412 474 35,100 -1,140 Descending Miami Center
09:48AM 27.8261 -78.6389 241° Southwest 412 474 35,000 -60 Descending Miami Center
09:49AM 27.7350 -78.7358 223° Southwest 412 474 35,000 -900 Level Miami Center
09:50AM 27.6097 -78.7361 180° South 402 463 33,300 -1,800 Descending Miami Center
09:51AM 27.4956 -78.6781 156° South 435 501 31,500 -1,980 Descending Miami Center
09:52AM 27.3842 -78.7325 203° Southwest 439 505 29,400 -2,160 Descending Miami Center
09:53AM 27.2950 -78.8481 229° Southwest 438 504 27,200 -2,040 Descending Miami Center
09:54AM 27.2411 -78.9661 243° Southwest 438 504 25,400 -1,980 Descending Miami Center
09:55AM 27.2247 -79.0919 262° West 420 483 23,300 -2,280 Descending Miami Center
09:56AM 27.2103 -79.2039 262° West 465 535 20,900 -2,460 Descending Miami Center
09:57AM 27.1939 -79.3228 261° West 405 466 18,400 -2,700 Descending Miami Center
09:58AM 27.1728 -79.4436 259° West 379 436 15,600 -2,340 Descending Miami Center
09:59AM 27.1689 -79.5486 268° West 359 413 13,800 -1,800 Descending Miami Center
10:00AM 27.1461 -79.6461 255° West 338 389 12,000 -1,980 Descending Miami Center
10:01AM 27.0908 -79.7031 223° Southwest 302 348 9,900 -2,040 Descending Miami Center
10:02AM 27.0250 -79.7597 217° Southwest 289 333 8,000 -1,800 Descending Miami Center
10:03AM 26.9550 -79.8069 211° Southwest 282 325 6,400 -1,740 Descending Miami Center
10:04AM 26.8914 -79.8519 212° Southwest 276 318 4,600 -1,620 Descending Miami Center
10:05AM 26.8281 -79.8944 211° Southwest 276 318 3,200 -1,380 Descending Miami Center
10:06AM 26.7706 -79.9372 214° Southwest 276 318 1,900 -840 Descending Miami Center
10:07AM 26.7069 -79.9797 211° Southwest 261 300 1,600 -240 Descending Miami Center
10:08AM 26.6772 -80.0117 224° Southwest 199 229 1,500 -120 Descending Miami Center
10:10AM 26.6832 -80.0956 347° North  Level Estimated
10:17AM 26.6832 -80.0956 110° East  Level Estimated
10:18AM 26.6832 -80.0956 110° East  Level Estimated